Franklin, Kansas
Current Conditions -  °F | °C
As of 11:35 PM on Sunday 21 Dec 2014 (Local Time) from KPTS Reporting Station
Overcast Overcast  
Wind Chill: 40°   Ceiling: 3500
Heat Index: 46°   Visibility: 10mi
Dew Point: 43°   Wind: 10mph
Humidity: 91%   Direction: 180°S
Pressure: 29.75"   Gusts: NA
Location:  37.53°N, 94.71°W
Report Text: KPTS 220535Z AUTO 18009KT 10SM SCT017 BKN035 OVC055 08/06 A2975 RMK AO2 T00750061
Loading
Personal Weather Stations






























Interactive Weather Map New forecast layout! Learn more

10-Day Weather Forecast

Advertisements
Track Severe Weather on mobile